Last 7 Days

Gordon Valley 3

Hourly Data | America/Los_Angeles
as of 3/7/21 1:47 PM PST
Date & Time Temp (°F) RH (%) Dew Pt (°F) Wind Spd (mph) Wind Dir (°) Wind Gust (mph) Latest Rain (In) Daily Rain (In) Daily Min Temp (°F) Daily Max Temp (°F)
3/7/21 - 1300 61.6 41 37.5 4.7 SSE | 162 10.1 0.00 0.00 34.2 63.1
3/7/21 - 1200 61.5 38 35.6 3.9 S | 177 8.8 0.00 0.00 34.2 62.7
3/7/21 - 1100 60.1 36 32.8 2.8 S | 179 7.4 0.00 0.00 34.2 61.8
3/7/21 - 1000 55.7 38 30.4 2.8 NE | 42 7.1 0.00 0.00 34.2 57.7
3/7/21 - 0900 51.4 44 30.3 3.5 NNE | 32 7.1 0.00 0.00 34.2 53.7
3/7/21 - 0800 43.4 61 30.9 3.9 ENE | 65 7.8 0.00 0.00 34.2 47.6
3/7/21 - 0700 38.7 67 28.8 2.7 NNE | 23 5.8 0.00 0.00 34.2 45.9
3/7/21 - 0600 37.7 72 29.4 2.7 NNE | 30 4.8 0.00 0.00 34.2 45.9
3/7/21 - 0500 36.6 77 30.1 1.4 N | 10 6.4 0.00 0.00 34.2 45.9
3/7/21 - 0400 35.8 85 31.6 0.8 NNE | 33 2.7 0.00 0.00 34.2 45.9
3/7/21 - 0300 43.4 63 31.7 2.1 N | 355 6.8 0.00 0.00 38.2 45.9
3/7/21 - 0200 44.6 67 34.3 3.0 NE | 38 7.1 0.00 0.00 41.7 45.9
3/7/21 - 0100 43.6 79 37.4 2.5 ENE | 72 5.1 0.00 0.00 41.7 44.8
3/7/21 - 0000 46.0 71 37.0 2.0 N | 7 7.1 0.00 0.04 37.5 63.4
3/6/21 - 2300 41.0 91 38.5 1.6 NE | 38 9.5 0.00 0.04 37.5 63.4
3/6/21 - 2200 38.8 96 37.9 0.7 NNE | 16 3.1 0.00 0.04 37.5 63.4
3/6/21 - 2100 41.8 93 40.0 1.1 NNW | 341 3.8 0.00 0.04 37.5 63.4
3/6/21 - 2000 44.7 88 41.3 0.6 NE | 47 3.1 0.00 0.04 37.5 63.4
3/6/21 - 1900 50.1 72 41.4 1.6 SW | 220 5.4 0.00 0.04 37.5 63.4
3/6/21 - 1800 56.9 60 43.0 5.1 SW | 234 11.1 0.00 0.04 37.5 63.4
3/6/21 - 1700 61.4 53 43.9 5.1 SSW | 208 10.5 0.00 0.04 37.5 63.4
3/6/21 - 1600 61.3 48 41.3 3.4 SE | 134 9.8 0.00 0.04 37.5 63.0
3/6/21 - 1500 61.9 48 42.0 3.5 SE | 138 8.8 0.00 0.04 37.5 62.6
3/6/21 - 1400 60.8 51 42.4 3.4 S | 190 7.8 0.00 0.04 37.5 62.4
3/6/21 - 1300 59.1 55 42.8 4.3 SE | 125 10.1 0.00 0.04 37.5 60.4
3/6/21 - 1200 57.6 55 41.7 2.7 WSW | 257 7.4 0.00 0.04 37.5 59.5
3/6/21 - 1100 54.8 61 41.5 3.6 WNW | 285 7.8 0.00 0.04 37.5 56.8
3/6/21 - 1000 51.4 69 41.6 2.7 NE | 34 8.4 0.00 0.04 37.5 53.6
3/6/21 - 0900 47.4 80 41.5 2.6 NNW | 339 7.8 0.00 0.04 37.5 49.0
3/6/21 - 0800 41.4 92 39.1 1.2 SSE | 153 5.1 0.00 0.04 37.5 46.8
3/6/21 - 0700 39.2 93 37.2 2.1 NNW | 342 5.4 0.00 0.04 37.5 46.8
3/6/21 - 0600 42.2 86 38.4 2.9 E | 87 9.8 0.00 0.04 40.0 46.8
3/6/21 - 0500 43.0 88 39.6 2.6 WNW | 291 8.1 0.00 0.04 42.2 46.8
3/6/21 - 0400 43.6 92 41.5 2.6 W | 269 6.8 0.00 0.04 43.2 46.8
3/6/21 - 0300 45.2 91 42.7 3.7 SW | 224 8.4 0.00 0.04 44.0 46.8
3/6/21 - 0200 45.6 92 43.6 5.0 SSW | 210 13.8 0.00 0.04 45.4 46.8
3/6/21 - 0100 46.0 89 42.9 3.2 NE | 44 14.2 0.04 0.04 45.4 46.8
3/6/21 - 0000 48.6 84 43.9 8.6 WNW | 296 26.6 0.05 0.07 36.5 65.0
3/5/21 - 2300 53.9 81 48.3 7.3 S | 184 30.6 0.02 0.02 36.5 65.0
3/5/21 - 2200 52.5 88 49.1 4.7 SSW | 211 11.1 0.00 0.00 36.5 65.0
3/5/21 - 2100 54.2 84 49.5 8.5 SW | 225 18.8 0.00 0.00 36.5 65.0
3/5/21 - 2000 54.1 84 49.3 8.2 WSW | 242 15.2 0.00 0.00 36.5 65.0
3/5/21 - 1900 54.3 79 48.0 5.4 WSW | 249 13.2 0.00 0.00 36.5 65.0
3/5/21 - 1800 57.6 69 47.6 6.4 SW | 232 13.2 0.00 0.00 36.5 65.0
3/5/21 - 1700 61.8 58 46.8 9.0 SW | 232 15.5 0.00 0.00 36.5 65.0
3/5/21 - 1600 64.3 52 46.5 8.3 SW | 227 14.2 0.00 0.00 36.5 65.0
3/5/21 - 1500 64.5 52 46.7 8.2 SW | 225 16.2 0.00 0.00 36.5 65.0
3/5/21 - 1400 64.1 54 47.3 8.3 SW | 216 14.8 0.00 0.00 36.5 64.6
3/5/21 - 1300 63.2 55 46.6 7.2 SW | 226 15.2 0.00 0.00 36.5 64.1
3/5/21 - 1200 61.7 55 45.5 7.4 SW | 223 12.1 0.00 0.00 36.5 63.1
3/5/21 - 1100 61.4 53 44.0 8.2 SW | 226 14.2 0.00 0.00 36.5 63.1
3/5/21 - 1000 59.3 53 42.2 5.5 WSW | 241 12.8 0.00 0.00 36.5 60.2
3/5/21 - 0900 54.1 61 41.0 2.2 N | 352 7.1 0.00 0.00 36.5 57.4
3/5/21 - 0800 43.2 82 37.8 1.9 N | 7 5.1 0.00 0.00 36.5 49.6
3/5/21 - 0700 39.6 86 35.7 1.7 NE | 41 5.4 0.00 0.00 36.5 46.4
3/5/21 - 0600 37.8 91 35.5 1.3 NNE | 19 6.1 0.00 0.00 36.5 46.4
3/5/21 - 0500 39.8 89 36.9 1.2 NNE | 16 4.4 0.00 0.00 37.6 46.4
3/5/21 - 0400 42.8 84 38.4 1.8 NNW | 342 5.1 0.00 0.00 39.1 46.4
3/5/21 - 0300 44.4 80 38.5 3.3 NNW | 345 8.8 0.00 0.00 39.1 46.4
3/5/21 - 0200 40.9 82 35.9 2.3 N | 360 5.8 0.00 0.00 39.1 43.6
3/5/21 - 0100 40.8 80 35.2 2.3 NE | 48 6.1 0.00 0.00 39.8 42.5
3/5/21 - 0000 41.2 77 34.6 2.6 ENE | 58 5.8 0.00 0.00 31.8 65.0
3/4/21 - 2300 40.4 79 34.5 2.2 NE | 46 4.8 0.00 0.00 31.8 65.0
3/4/21 - 2200 42.2 76 35.1 2.2 NE | 38 5.4 0.00 0.00 31.8 65.0
3/4/21 - 2100 44.9 71 36.2 2.4 NE | 45 6.1 0.00 0.00 31.8 65.0
3/4/21 - 2000 50.6 57 35.7 1.9 NNE | 19 8.8 0.00 0.00 31.8 65.0
3/4/21 - 1900 53.9 57 39.1 2.1 W | 261 7.8 0.00 0.00 31.8 65.0
3/4/21 - 1800 59.1 50 40.4 4.9 SSW | 194 9.1 0.00 0.00 31.8 65.0
3/4/21 - 1700 63.9 37 36.9 6.0 SW | 234 10.1 0.00 0.00 31.8 65.0
3/4/21 - 1600 64.5 35 36.4 5.8 WSW | 237 11.1 0.00 0.00 31.8 65.0
3/4/21 - 1500 63.8 40 39.0 5.7 SW | 231 11.5 0.00 0.00 31.8 64.6
3/4/21 - 1400 62.6 44 40.5 6.4 SSW | 200 10.8 0.00 0.00 31.8 63.2
3/4/21 - 1300 61.0 49 41.6 7.1 SW | 217 11.8 0.00 0.00 31.8 62.0
3/4/21 - 1200 59.7 49 40.3 8.1 S | 190 13.2 0.00 0.00 31.8 60.4
3/4/21 - 1100 59.0 53 41.7 4.1 S | 191 10.5 0.00 0.00 31.8 60.4
3/4/21 - 1000 55.2 61 42.0 2.8 WSW | 244 6.8 0.00 0.00 31.8 58.6
3/4/21 - 0900 49.4 74 41.3 4.1 N | 358 8.8 0.00 0.00 31.8 52.0
3/4/21 - 0800 40.7 92 38.4 3.5 N | 5 8.8 0.00 0.00 31.8 46.4
3/4/21 - 0700 32.9 98 32.5 2.1 NNE | 26 4.4 0.00 0.00 31.8 39.3
3/4/21 - 0600 34.2 97 33.5 1.1 NNE | 14 3.1 0.00 0.00 32.6 39.3
3/4/21 - 0500 35.2 98 34.7 0.8 SW | 219 3.1 0.00 0.00 32.8 39.3
3/4/21 - 0400 33.8 98 33.3 0.7 S | 187 3.4 0.00 0.00 32.8 39.3
3/4/21 - 0300 34.5 97 33.8 0.7 NNE | 12 3.1 0.00 0.00 33.1 39.3
3/4/21 - 0200 35.5 96 34.6 0.8 NNE | 20 3.4 0.00 0.00 34.8 39.3
3/4/21 - 0100 37.6 93 35.6 1.1 NW | 318 4.8 0.00 0.00 34.8 39.3
3/4/21 - 0000 38.6 93 36.8 1.3 NE | 51 4.4 0.00 0.00 34.8 69.8
3/3/21 - 2300 40.9 89 37.8 1.8 W | 279 5.1 0.00 0.00 34.8 69.8
3/3/21 - 2200 45.9 81 40.3 3.5 NNW | 330 13.2 0.00 0.00 34.8 69.8
3/3/21 - 2100 47.0 80 41.1 5.9 SW | 224 14.2 0.00 0.00 34.8 69.8
3/3/21 - 2000 48.9 77 41.9 11.2 SW | 227 17.8 0.00 0.00 34.8 69.8
3/3/21 - 1900 50.0 78 43.5 9.2 SSW | 212 17.2 0.00 0.00 34.8 69.8
3/3/21 - 1800 55.0 67 44.0 10.2 SSW | 210 17.2 0.00 0.00 34.8 69.8
3/3/21 - 1700 57.9 63 45.4 10.6 SSW | 207 16.8 0.00 0.00 34.8 69.8
3/3/21 - 1600 62.5 51 44.0 7.7 SSW | 212 14.5 0.00 0.00 34.8 69.8
3/3/21 - 1500 66.3 34 36.9 5.4 SW | 222 11.1 0.00 0.00 34.8 69.8
3/3/21 - 1400 68.2 30 35.8 6.0 SW | 232 10.5 0.00 0.00 34.8 69.8
3/3/21 - 1300 67.2 39 41.2 5.2 S | 183 11.1 0.00 0.00 34.8 69.8
3/3/21 - 1200 63.9 44 41.7 5.2 S | 173 10.1 0.00 0.00 34.8 66.2
3/3/21 - 1100 62.8 41 38.8 4.1 SSW | 194 7.4 0.00 0.00 34.8 64.6
3/3/21 - 1000 57.6 47 37.0 1.5 WSW | 237 5.4 0.00 0.00 34.8 62.8
3/3/21 - 0900 46.6 71 37.5 2.0 ENE | 57 4.4 0.00 0.00 34.8 52.4
3/3/21 - 0800 37.9 84 33.5 1.5 NNE | 33 3.4 0.00 0.00 34.8 52.4
3/3/21 - 0700 35.9 84 31.4 1.8 NNE | 22 4.1 0.00 0.00 34.8 52.4
3/3/21 - 0600 40.8 70 31.8 2.2 NE | 47 5.1 0.00 0.00 37.4 52.4
3/3/21 - 0500 43.6 60 30.4 2.7 NE | 47 5.4 0.00 0.00 37.5 52.4
3/3/21 - 0400 48.1 51 30.5 2.8 NNE | 22 6.8 0.00 0.00 37.5 52.4
3/3/21 - 0300 49.1 47 29.9 4.2 ENE | 71 7.8 0.00 0.00 37.5 52.4
3/3/21 - 0200 50.0 46 30.0 3.6 NE | 53 7.8 0.00 0.00 37.5 52.4
3/3/21 - 0100 42.3 66 31.4 2.4 NE | 44 5.1 0.00 0.00 37.5 47.9
3/3/21 - 0000 40.1 78 33.8 3.1 NE | 49 5.1 0.00 0.00 32.7 71.1
3/2/21 - 2300 42.0 76 34.8 3.1 NE | 56 5.1 0.00 0.00 32.7 71.1
3/2/21 - 2200 44.1 74 36.3 2.8 ENE | 60 5.1 0.00 0.00 32.7 71.1
3/2/21 - 2100 44.8 76 37.7 2.3 ENE | 65 4.1 0.00 0.00 32.7 71.1
3/2/21 - 2000 48.9 71 40.1 1.9 NE | 53 3.4 0.00 0.00 32.7 71.1
3/2/21 - 1900 53.7 67 43.0 1.4 NE | 42 3.8 0.00 0.00 32.7 71.1
3/2/21 - 1800 60.3 56 44.3 0.8 NE | 44 2.7 0.00 0.00 32.7 71.1
3/2/21 - 1700 65.9 39 40.0 2.3 S | 180 5.4 0.00 0.00 32.7 71.1
3/2/21 - 1600 69.0 31 37.3 3.2 SSW | 207 6.1 0.00 0.00 32.7 71.1
3/2/21 - 1500 70.8 26 34.1 3.5 SSW | 208 7.8 0.00 0.00 32.7 71.1
3/2/21 - 1400 69.2 31 36.8 4.3 SSW | 212 8.8 0.00 0.00 32.7 70.1
3/2/21 - 1300 67.4 34 37.8 3.7 SSW | 208 9.1 0.00 0.00 32.7 68.7
3/2/21 - 1200 64.1 38 38.3 2.9 SSW | 194 6.4 0.00 0.00 32.7 66.1
3/2/21 - 1100 59.8 43 36.9 3.3 S | 188 6.4 0.00 0.00 32.7 61.8
3/2/21 - 1000 56.1 47 35.9 2.8 S | 189 5.4 0.00 0.00 32.7 58.0
3/2/21 - 0900 47.8 63 35.6 0.9 SSW | 204 4.1 0.00 0.00 32.7 54.4
3/2/21 - 0800 35.7 86 31.8 1.3 NE | 46 3.8 0.00 0.00 32.7 48.7
3/2/21 - 0700 33.4 87 29.9 1.5 NE | 49 3.4 0.00 0.00 32.7 48.7
3/2/21 - 0600 33.8 86 30.0 1.5 NE | 41 5.4 0.00 0.00 33.1 48.7
3/2/21 - 0500 34.5 84 30.2 1.7 NE | 47 6.8 0.00 0.00 33.5 48.7
3/2/21 - 0400 36.8 78 30.6 1.2 NE | 45 3.8 0.00 0.00 34.3 48.7
3/2/21 - 0300 40.6 67 30.5 1.9 NE | 51 4.4 0.00 0.00 39.6 48.7
3/2/21 - 0200 45.0 54 28.9 2.3 NE | 46 5.8 0.00 0.00 41.2 48.7
3/2/21 - 0100 47.3 47 27.8 3.0 NE | 49 7.1 0.00 0.00 45.2 48.7
3/2/21 - 0000 47.2 46 27.7 2.0 NE | 42 5.4 0.00 0.00 30.6 68.2
3/1/21 - 2300 47.2 49 28.9 3.5 NNE | 19 6.1 0.00 0.00 30.6 68.2
3/1/21 - 2200 45.6 57 31.2 2.6 NNE | 14 6.4 0.00 0.00 30.6 68.2
3/1/21 - 2100 45.4 61 32.8 1.2 N | 6 5.4 0.00 0.00 30.6 68.2
3/1/21 - 2000 50.3 50 32.5 2.3 NNE | 31 4.8 0.00 0.00 30.6 68.2
3/1/21 - 1900 53.3 46 33.1 2.4 NNE | 20 5.1 0.00 0.00 30.6 68.2
3/1/21 - 1800 61.2 35 33.0 2.5 NW | 322 4.8 0.00 0.00 30.6 68.2
3/1/21 - 1700 65.8 28 32.2 2.4 WNW | 299 8.1 0.00 0.00 30.6 68.2
3/1/21 - 1600 67.3 28 33.4 4.8 SW | 227 10.5 0.00 0.00 30.6 68.2
3/1/21 - 1500 66.7 30 33.9 5.2 SW | 234 10.8 0.00 0.00 30.6 67.6
3/1/21 - 1400 65.9 31 34.2 4.6 SW | 216 10.5 0.00 0.00 30.6 66.5
3/1/21 - 1300 64.6 31 33.4 4.1 SSW | 196 10.1 0.00 0.00 30.6 66.0
3/1/21 - 1200 63.9 29 31.3 5.0 SSW | 204 11.1 0.00 0.00 30.6 65.0
3/1/21 - 1100 60.4 41 36.6 3.0 SE | 140 7.1 0.00 0.00 30.6 62.8
3/1/21 - 1000 58.2 49 38.8 2.0 SSW | 196 5.4 0.00 0.00 30.6 59.8
3/1/21 - 0900 49.8 60 36.5 0.5 N | 1 3.1 0.00 0.00 30.6 54.0
3/1/21 - 0800 36.7 88 33.3 1.5 NE | 36 4.8 0.00 0.00 30.6 43.5
3/1/21 - 0700 31.3 95 29.9 1.7 NNE | 31 4.8 0.00 0.00 30.6 39.0
3/1/21 - 0600 32.7 93 30.8 1.3 NNE | 25 3.1 0.00 0.00 31.7 39.0
3/1/21 - 0500 32.7 93 30.9 1.4 NE | 51 3.1 0.00 0.00 31.9 39.0
3/1/21 - 0400 33.8 90 31.2 1.2 N | 4 2.7 0.00 0.00 32.4 39.0
3/1/21 - 0300 34.7 89 31.9 1.3 NE | 41 3.1 0.00 0.00 34.1 39.0
3/1/21 - 0200 35.2 87 31.9 1.6 NE | 36 3.4 0.00 0.00 34.4 39.0
3/1/21 - 0100 37.7 81 32.4 1.7 ENE | 58 3.8 0.00 0.00 36.3 39.0
3/1/21 - 0000 38.9 78 32.5 2.3 ENE | 61 3.8 0.00 0.00 36.1 66.2
2/28/21 - 2300 39.3 78 32.9 2.4 ENE | 57 4.8 0.00 0.00 36.1 66.2
2/28/21 - 2200 39.5 80 33.6 1.8 ENE | 62 3.8 0.00 0.00 36.1 66.2
2/28/21 - 2100 40.7 79 34.6 2.1 NE | 44 3.8 0.00 0.00 36.1 66.2
2/28/21 - 2000 44.1 70 35.0 1.6 NE | 40 4.1 0.00 0.00 36.1 66.2
2/28/21 - 1900 51.5 51 33.4 1.8 NNW | 348 4.1 0.00 0.00 36.1 66.2
2/28/21 - 1800 61.8 27 27.1 4.1 E | 86 9.5 0.00 0.00 36.1 66.2
2/28/21 - 1700 64.2 25 27.1 7.2 ENE | 77 12.8 0.00 0.00 36.1 66.2
2/28/21 - 1600 65.7 24 27.7 6.5 ENE | 57 13.8 0.00 0.00 36.1 66.2
2/28/21 - 1500 65.7 24 28.2 6.7 ENE | 59 12.1 0.00 0.00 36.1 66.2
2/28/21 - 1400 64.8 24 26.7 8.7 NE | 54 17.5 0.00 0.00 36.1 65.2
Max 70.8 98 49.5 11.2 - 30.6 0.05 0.07 45.4 71.1
Avg 50.1 65 36.8 3.5 - 8.0 0.00 - - -
Min 31.3 24 26.7 0.5 - 2.7 0.00 0.00 30.6 39.0
Total - - - - - - 0.11 - - -
Tip: Bookmark this page for easy future reference